createdAt,value
2018-07-05T00:00:14.598Z,84.48
2018-07-05T00:01:14.606Z,84.63
2018-07-05T00:02:14.607Z,85.02
2018-07-05T00:03:14.613Z,85.21
2018-07-05T00:04:14.617Z,85.11
2018-07-05T00:05:14.631Z,85.69
2018-07-05T00:06:14.627Z,85.60
2018-07-05T00:07:14.632Z,85.88
2018-07-05T00:08:14.637Z,86.27
2018-07-05T00:09:14.641Z,85.88
2018-07-05T00:10:14.645Z,85.88
2018-07-05T00:11:14.654Z,86.27
2018-07-05T00:12:14.655Z,86.27
2018-07-05T00:13:14.661Z,86.75
2018-07-05T00:14:14.664Z,86.90
2018-07-05T00:15:14.671Z,86.99
2018-07-05T00:16:14.674Z,86.99
2018-07-05T00:17:14.678Z,87.19
2018-07-05T00:18:14.683Z,87.09
2018-07-05T00:19:14.687Z,87.67
2018-07-05T00:20:14.692Z,88.24
2018-07-05T00:21:14.696Z,87.76
2018-07-05T00:22:14.701Z,88.53
2018-07-05T00:23:14.706Z,88.24
2018-07-05T00:24:14.708Z,88.82
2018-07-05T00:25:14.714Z,88.53
2018-07-05T00:26:14.720Z,89.21
2018-07-05T00:27:14.723Z,89.59
2018-07-05T00:28:14.727Z,88.92
2018-07-05T00:29:14.731Z,89.74
2018-07-05T00:30:14.736Z,89.54
2018-07-05T00:31:14.741Z,89.74
2018-07-05T00:32:14.744Z,89.45
2018-07-05T00:33:14.749Z,89.11
2018-07-05T00:34:14.753Z,89.98
2018-07-05T00:35:14.762Z,89.21
2018-07-05T00:36:14.761Z,89.83
2018-07-05T00:37:14.765Z,89.64
2018-07-05T00:38:14.770Z,90.22
2018-07-05T00:39:14.775Z,90.12
2018-07-05T00:40:14.779Z,90.22
2018-07-05T00:41:14.785Z,90.12
2018-07-05T00:42:14.787Z,91.28
2018-07-05T00:43:14.792Z,90.41
2018-07-05T00:44:14.794Z,90.70
2018-07-05T00:45:14.801Z,91.08
2018-07-05T00:46:14.803Z,91.18
2018-07-05T00:47:14.813Z,91.28
2018-07-05T00:48:14.812Z,90.99
2018-07-05T00:49:14.819Z,91.47
2018-07-05T00:50:14.862Z,91.56
2018-07-05T00:51:14.829Z,92.24
2018-07-05T00:52:14.830Z,91.95
2018-07-05T00:53:14.833Z,92.33
2018-07-05T00:54:14.836Z,92.24
2018-07-05T00:55:14.842Z,92.14
2018-07-05T00:56:14.844Z,92.52
2018-07-05T00:57:14.848Z,93.10
2018-07-05T00:58:14.851Z,92.81
2018-07-05T00:59:14.856Z,93.01
2018-07-05T01:00:14.860Z,92.81
2018-07-05T01:01:14.864Z,93.15
2018-07-05T01:02:14.869Z,92.96
2018-07-05T01:03:14.876Z,93.73
2018-07-05T01:04:14.875Z,92.86
2018-07-05T01:05:14.881Z,93.54
2018-07-05T01:06:14.883Z,93.39
2018-07-05T01:07:14.888Z,93.92
2018-07-05T01:08:14.891Z,93.58
2018-07-05T01:09:14.895Z,93.25
2018-07-05T01:10:14.899Z,93.92
2018-07-05T01:11:14.901Z,93.82
2018-07-05T01:12:14.905Z,94.01
2018-07-05T01:13:14.910Z,93.73
2018-07-05T01:14:14.914Z,93.82
2018-07-05T01:15:14.918Z,94.01
2018-07-05T01:16:14.923Z,93.54
2018-07-05T01:17:14.925Z,93.92
2018-07-05T01:18:14.929Z,94.31
2018-07-05T01:19:14.933Z,94.01
2018-07-05T01:20:14.936Z,94.01
2018-07-05T01:21:14.940Z,94.40
2018-07-05T01:22:14.944Z,94.21
2018-07-05T01:23:14.951Z,94.59
2018-07-05T01:24:14.951Z,94.31
2018-07-05T01:25:14.954Z,94.40
2018-07-05T01:26:14.958Z,94.69
2018-07-05T01:27:14.964Z,94.78
2018-07-05T01:28:14.965Z,95.45
2018-07-05T01:29:14.969Z,94.49
2018-07-05T01:30:14.977Z,94.31
2018-07-05T01:31:14.977Z,94.69
2018-07-05T01:32:14.980Z,94.88
2018-07-05T01:33:14.983Z,94.59
2018-07-05T01:34:14.988Z,94.59
2018-07-05T01:35:14.992Z,95.17
2018-07-05T01:36:14.994Z,94.59
2018-07-05T01:37:14.998Z,95.07
2018-07-05T01:38:15.005Z,95.07
2018-07-05T01:39:15.006Z,94.78
2018-07-05T01:40:15.009Z,95.55
2018-07-05T01:41:15.012Z,94.49
2018-07-05T01:42:15.017Z,95.17
2018-07-05T01:43:15.019Z,95.17
2018-07-05T01:44:15.026Z,95.45
2018-07-05T01:45:15.032Z,95.45
2018-07-05T01:46:15.031Z,95.55
2018-07-05T01:47:15.034Z,96.03
2018-07-05T01:48:15.037Z,95.75
2018-07-05T01:49:15.041Z,95.36
2018-07-05T01:50:15.045Z,96.22
2018-07-05T01:51:15.048Z,96.66
2018-07-05T01:52:15.051Z,96.85
2018-07-05T01:53:15.053Z,96.66
2018-07-05T01:54:15.058Z,96.66
2018-07-05T01:55:15.063Z,96.47
2018-07-05T01:56:15.064Z,96.47
2018-07-05T01:57:15.068Z,96.85
2018-07-05T01:58:15.072Z,96.66
2018-07-05T01:59:15.075Z,96.56
2018-07-05T02:00:15.078Z,96.75
2018-07-05T02:01:15.081Z,96.27
2018-07-05T02:02:15.084Z,96.56
2018-07-05T02:03:15.089Z,97.24
2018-07-05T02:04:15.092Z,96.75
2018-07-05T02:05:15.096Z,97.04
2018-07-05T02:06:15.098Z,97.14
2018-07-05T02:07:15.102Z,97.04
2018-07-05T02:08:15.105Z,97.52
2018-07-05T02:09:15.108Z,97.42
2018-07-05T02:10:15.112Z,97.42
2018-07-05T02:11:15.115Z,97.61
2018-07-05T02:12:15.118Z,97.52
2018-07-05T02:13:15.124Z,97.42
2018-07-05T02:14:15.127Z,97.61
2018-07-05T02:15:15.129Z,97.52
2018-07-05T02:16:15.131Z,97.71
2018-07-05T02:17:15.133Z,97.61
2018-07-05T02:18:15.138Z,97.81
2018-07-05T02:19:15.141Z,97.71
2018-07-05T02:20:15.144Z,97.86
2018-07-05T02:21:15.147Z,98.00
2018-07-05T02:22:15.152Z,97.71
2018-07-05T02:23:15.154Z,98.00
2018-07-05T02:24:15.158Z,98.43
2018-07-05T02:25:15.160Z,97.66
2018-07-05T02:26:15.163Z,98.43
2018-07-05T02:27:15.167Z,98.14
2018-07-05T02:28:15.170Z,97.95
2018-07-05T02:29:15.178Z,98.24
2018-07-05T02:30:15.177Z,98.24
2018-07-05T02:31:15.181Z,98.43
2018-07-05T02:32:15.183Z,98.62
2018-07-05T02:33:15.186Z,98.33
2018-07-05T02:34:15.190Z,98.53
2018-07-05T02:35:15.192Z,97.66
2018-07-05T02:36:15.196Z,97.66
2018-07-05T02:37:15.199Z,97.56
2018-07-05T02:38:15.202Z,98.53
2018-07-05T02:39:15.206Z,98.43
2018-07-05T02:40:15.208Z,98.43
2018-07-05T02:41:15.211Z,98.62
2018-07-05T02:42:15.214Z,97.76
2018-07-05T02:43:15.218Z,97.95
2018-07-05T02:44:15.222Z,97.76
2018-07-05T02:45:15.224Z,97.95
2018-07-05T02:46:15.228Z,97.76
2018-07-05T02:47:15.231Z,97.56
2018-07-05T02:48:15.238Z,97.76
2018-07-05T02:49:15.236Z,97.56
2018-07-05T02:50:15.240Z,97.28
2018-07-05T02:51:15.244Z,97.28
2018-07-05T02:52:15.246Z,96.89
2018-07-05T02:53:15.249Z,97.28
2018-07-05T02:54:15.252Z,97.38
2018-07-05T02:55:15.261Z,97.09
2018-07-05T02:56:15.258Z,97.19
2018-07-05T02:57:15.265Z,97.38
2018-07-05T02:58:15.268Z,97.47
2018-07-05T02:59:15.268Z,96.89
2018-07-05T03:00:15.271Z,97.19
2018-07-05T03:01:15.275Z,96.89
2018-07-05T03:02:15.277Z,96.99
2018-07-05T03:03:15.285Z,96.80
2018-07-05T03:04:15.283Z,96.89
2018-07-05T03:05:15.288Z,97.56
2018-07-05T03:06:15.307Z,97.19
2018-07-05T03:07:15.294Z,96.51
2018-07-05T03:08:15.294Z,96.80
2018-07-05T03:09:15.299Z,95.84
2018-07-05T03:10:15.302Z,96.42
2018-07-05T03:11:15.305Z,96.32
2018-07-05T03:12:15.312Z,95.84
2018-07-05T03:13:15.311Z,96.03
2018-07-05T03:14:15.313Z,95.55
2018-07-05T03:15:15.317Z,95.65
2018-07-05T03:16:15.320Z,95.36
2018-07-05T03:17:15.324Z,95.65
2018-07-05T03:18:15.328Z,95.46
2018-07-05T03:19:15.330Z,95.55
2018-07-05T03:20:15.331Z,95.65
2018-07-05T03:21:15.334Z,95.46
2018-07-05T03:22:15.338Z,95.55
2018-07-05T03:23:15.340Z,95.65
2018-07-05T03:24:15.343Z,94.49
2018-07-05T03:25:15.346Z,94.69
2018-07-05T03:26:15.349Z,95.17
2018-07-05T03:27:15.355Z,94.79
2018-07-05T03:28:15.354Z,94.31
2018-07-05T03:29:15.357Z,94.69
2018-07-05T03:30:15.361Z,94.40
2018-07-05T03:31:15.364Z,94.31
2018-07-05T03:32:15.366Z,94.49
2018-07-05T03:33:15.370Z,94.40
2018-07-05T03:34:15.373Z,93.44
2018-07-05T03:35:15.376Z,93.63
2018-07-05T03:36:15.379Z,93.82
2018-07-05T03:37:15.382Z,93.54
2018-07-05T03:38:15.387Z,93.06
2018-07-05T03:39:15.388Z,93.25
2018-07-05T03:40:15.391Z,93.06
2018-07-05T03:41:15.394Z,93.15
2018-07-05T03:42:15.398Z,93.15
2018-07-05T03:43:15.407Z,92.96
2018-07-05T03:44:15.404Z,92.96
2018-07-05T03:45:15.406Z,92.29
2018-07-05T03:46:15.409Z,92.53
2018-07-05T03:47:15.413Z,92.58
2018-07-05T03:48:15.415Z,92.58
2018-07-05T03:49:15.419Z,92.86
2018-07-05T03:50:15.421Z,92.48
2018-07-05T03:51:15.425Z,92.29
2018-07-05T03:52:15.427Z,92.48
2018-07-05T03:53:15.435Z,92.39
2018-07-05T03:54:15.435Z,92.10
2018-07-05T03:55:15.437Z,92.00
2018-07-05T03:56:15.441Z,91.66
2018-07-05T03:57:15.443Z,91.66
2018-07-05T03:58:15.448Z,91.38
2018-07-05T03:59:15.451Z,91.19
2018-07-05T04:00:15.454Z,90.80
2018-07-05T04:01:15.456Z,91.09
2018-07-05T04:02:15.460Z,90.80
2018-07-05T04:03:15.469Z,90.80
2018-07-05T04:04:15.466Z,91.19
2018-07-05T04:05:15.469Z,90.13
2018-07-05T04:06:15.472Z,89.65
2018-07-05T04:07:15.476Z,89.84
2018-07-05T04:08:15.525Z,89.65
2018-07-05T04:09:15.482Z,89.55
2018-07-05T04:10:15.486Z,88.88
2018-07-05T04:11:15.493Z,88.79
2018-07-05T04:12:15.491Z,89.17
2018-07-05T04:13:15.494Z,88.64
2018-07-05T04:14:15.498Z,88.54
2018-07-05T04:15:15.503Z,88.25
2018-07-05T04:16:15.504Z,88.54
2018-07-05T04:17:15.509Z,88.16
2018-07-05T04:18:15.518Z,88.06
2018-07-05T04:19:15.516Z,88.06
2018-07-05T04:20:15.519Z,88.35
2018-07-05T04:21:15.522Z,87.87
2018-07-05T04:22:15.525Z,87.96
2018-07-05T04:23:15.531Z,87.92
2018-07-05T04:24:15.533Z,88.02
2018-07-05T04:25:15.539Z,88.49
2018-07-05T04:26:15.541Z,88.31
2018-07-05T04:27:15.545Z,87.82
2018-07-05T04:28:15.547Z,87.92
2018-07-05T04:29:15.555Z,88.31
2018-07-05T04:30:15.555Z,88.40
2018-07-05T04:31:15.559Z,88.06
2018-07-05T04:32:15.561Z,87.96
2018-07-05T04:33:15.565Z,87.77
2018-07-05T04:34:15.589Z,87.77
2018-07-05T04:35:15.574Z,87.87
2018-07-05T04:36:15.576Z,87.58
2018-07-05T04:37:15.579Z,87.39
2018-07-05T04:38:15.584Z,87.39
2018-07-05T04:39:15.588Z,87.49
2018-07-05T04:40:15.591Z,87.68
2018-07-05T04:41:15.595Z,87.10
2018-07-05T04:42:15.599Z,87.19
2018-07-05T04:43:15.603Z,87.19
2018-07-05T04:44:15.608Z,86.43
2018-07-05T04:45:15.609Z,86.05
2018-07-05T04:46:15.612Z,86.24
2018-07-05T04:47:15.616Z,85.75
2018-07-05T04:48:15.619Z,86.05
2018-07-05T04:49:15.624Z,85.66
2018-07-05T04:50:15.627Z,85.47
2018-07-05T04:51:15.633Z,85.85
2018-07-05T04:52:15.634Z,85.66
2018-07-05T04:53:15.640Z,85.75
2018-07-05T04:54:15.643Z,85.85
2018-07-05T04:55:15.647Z,85.95
2018-07-05T04:56:15.652Z,85.75
2018-07-05T04:57:15.653Z,85.99
2018-07-05T04:58:15.659Z,85.95
2018-07-05T04:59:15.663Z,85.47
2018-07-05T05:00:15.666Z,85.18
2018-07-05T05:01:15.669Z,85.03
2018-07-05T05:02:15.675Z,85.41
2018-07-05T05:03:15.677Z,85.13
2018-07-05T05:04:15.681Z,84.84
2018-07-05T05:05:15.687Z,84.55
2018-07-05T05:06:15.689Z,84.45
2018-07-05T05:07:15.696Z,84.74
2018-07-05T05:08:15.697Z,84.45
2018-07-05T05:09:15.701Z,83.87
2018-07-05T05:10:15.705Z,83.49
2018-07-05T05:11:15.709Z,83.97
2018-07-05T05:12:15.714Z,83.87
2018-07-05T05:13:15.716Z,83.87
2018-07-05T05:14:15.721Z,83.49
2018-07-05T05:15:15.725Z,83.69
2018-07-05T05:16:15.729Z,83.44
2018-07-05T05:17:15.734Z,82.96
2018-07-05T05:18:15.737Z,82.76
2018-07-05T05:19:15.741Z,82.29
2018-07-05T05:20:15.745Z,82.19
2018-07-05T05:21:15.748Z,82.19
2018-07-05T05:22:15.754Z,82.29
2018-07-05T05:23:15.758Z,81.84
2018-07-05T05:24:15.782Z,81.40
2018-07-05T05:25:15.767Z,80.33
2018-07-05T05:26:15.772Z,80.56
2018-07-05T05:27:15.776Z,79.44
2018-07-05T05:28:15.783Z,79.10
2018-07-05T05:29:15.794Z,78.36
2018-07-05T05:30:15.794Z,78.36
2018-07-05T05:31:15.799Z,77.59
2018-07-05T05:32:15.806Z,77.40
2018-07-05T05:33:15.811Z,77.44
2018-07-05T05:34:15.819Z,77.15
2018-07-05T05:35:15.826Z,77.63
2018-07-05T05:36:15.832Z,77.73
2018-07-05T05:37:15.841Z,77.25
2018-07-05T05:38:15.849Z,77.00
2018-07-05T05:39:15.858Z,77.80
2018-07-05T05:40:15.865Z,77.22
2018-07-05T05:41:15.873Z,76.90
2018-07-05T05:42:15.882Z,77.32
2018-07-05T05:43:15.891Z,77.03
2018-07-05T05:44:15.898Z,76.74
2018-07-05T05:45:15.906Z,77.09
2018-07-05T05:46:15.916Z,76.47
2018-07-05T05:47:15.926Z,76.72
2018-07-05T05:48:15.955Z,76.88
2018-07-05T05:49:15.944Z,77.55
2018-07-05T05:50:15.957Z,76.88
2018-07-05T05:51:15.961Z,77.17
2018-07-05T05:52:15.969Z,77.55
2018-07-05T05:53:15.978Z,77.55
2018-07-05T05:54:15.984Z,77.75
2018-07-05T05:55:15.994Z,77.03
2018-07-05T05:56:16.006Z,77.07
2018-07-05T05:57:16.012Z,77.17
2018-07-05T05:58:16.020Z,77.71
2018-07-05T05:59:16.027Z,77.58
2018-07-05T06:00:16.034Z,77.76
2018-07-05T06:01:16.045Z,78.25
2018-07-05T06:02:16.049Z,78.15
2018-07-05T06:03:16.057Z,78.34
2018-07-05T06:04:16.067Z,77.96
2018-07-05T06:05:16.073Z,78.54
2018-07-05T06:06:16.125Z,78.34
2018-07-05T06:07:16.088Z,78.25
2018-07-05T06:08:16.094Z,78.25
2018-07-05T06:09:16.101Z,78.25
2018-07-05T06:10:16.110Z,79.11
2018-07-05T06:11:16.118Z,79.31
2018-07-05T06:12:16.124Z,79.21
2018-07-05T06:13:16.130Z,78.86
2018-07-05T06:14:16.139Z,78.92
2018-07-05T06:15:16.149Z,78.67
2018-07-05T06:16:16.152Z,79.02
2018-07-05T06:17:16.160Z,79.11
2018-07-05T06:18:16.167Z,78.15
2018-07-05T06:19:16.173Z,78.86
2018-07-05T06:20:16.179Z,78.15
2018-07-05T06:21:16.187Z,78.34
2018-07-05T06:22:16.195Z,78.92
2018-07-05T06:23:16.205Z,79.11
2018-07-05T06:24:16.208Z,79.08
2018-07-05T06:25:16.214Z,79.08
2018-07-05T06:26:16.223Z,79.27
2018-07-05T06:27:16.229Z,79.60
2018-07-05T06:28:16.234Z,79.89
2018-07-05T06:29:16.242Z,79.31
2018-07-05T06:30:16.249Z,79.79
2018-07-05T06:31:16.262Z,79.79
2018-07-05T06:32:16.262Z,79.69
2018-07-05T06:33:16.268Z,79.64
2018-07-05T06:34:16.345Z,79.25
2018-07-05T06:35:16.282Z,79.83
2018-07-05T06:36:16.289Z,78.86
2018-07-05T06:37:16.295Z,79.19
2018-07-05T06:38:16.305Z,78.91
2018-07-05T06:39:16.309Z,79.00
2018-07-05T06:40:16.341Z,78.42
2018-07-05T06:41:16.323Z,78.91
2018-07-05T06:42:16.329Z,78.61
2018-07-05T06:43:16.336Z,78.91
2018-07-05T06:44:16.342Z,78.71
2018-07-05T06:45:16.349Z,79.10
2018-07-05T06:46:16.356Z,79.10
2018-07-05T06:47:16.363Z,79.39
2018-07-05T06:48:16.368Z,78.91
2018-07-05T06:49:16.383Z,78.03
2018-07-05T06:50:16.382Z,79.19
2018-07-05T06:51:16.390Z,79.19
2018-07-05T06:52:16.396Z,78.81
2018-07-05T06:53:16.401Z,79.19
2018-07-05T06:54:16.410Z,78.19
2018-07-05T06:55:16.417Z,79.00
2018-07-05T06:56:16.422Z,79.19
2018-07-05T06:57:16.429Z,79.00
2018-07-05T06:58:16.438Z,79.19
2018-07-05T06:59:16.500Z,79.10
2018-07-05T07:00:16.450Z,79.04
2018-07-05T07:01:16.456Z,79.24
2018-07-05T07:02:16.464Z,79.04
2018-07-05T07:03:16.474Z,79.04
2018-07-05T07:04:16.477Z,79.14
2018-07-05T07:05:16.485Z,78.75
2018-07-05T07:06:16.495Z,78.36
2018-07-05T07:07:16.498Z,78.17
2018-07-05T07:08:16.505Z,78.17
2018-07-05T07:09:16.511Z,79.24
2018-07-05T07:10:16.519Z,78.59
2018-07-05T07:11:16.525Z,78.50
2018-07-05T07:12:16.542Z,78.21
2018-07-05T07:13:16.541Z,78.50
2018-07-05T07:14:16.547Z,78.73
2018-07-05T07:15:16.555Z,78.64
2018-07-05T07:16:16.559Z,78.15
2018-07-05T07:17:16.567Z,78.00
2018-07-05T07:18:16.575Z,77.61
2018-07-05T07:19:16.583Z,78.83
2018-07-05T07:20:16.588Z,77.76
2018-07-05T07:21:16.596Z,78.34
2018-07-05T07:22:16.606Z,78.38
2018-07-05T07:23:16.614Z,77.71
2018-07-05T07:24:16.618Z,77.94
2018-07-05T07:25:16.625Z,77.84
2018-07-05T07:26:16.633Z,78.42
2018-07-05T07:27:16.640Z,77.75
2018-07-05T07:28:16.646Z,78.03
2018-07-05T07:29:16.655Z,77.55
2018-07-05T07:30:16.663Z,77.65
2018-07-05T07:31:16.714Z,77.94
2018-07-05T07:32:16.680Z,77.94
2018-07-05T07:33:16.688Z,77.50
2018-07-05T07:34:16.694Z,77.40
2018-07-05T07:35:16.703Z,77.44
2018-07-05T07:36:16.711Z,77.44
2018-07-05T07:37:16.722Z,76.89
2018-07-05T07:38:16.729Z,75.90
2018-07-05T07:39:16.742Z,74.64
2018-07-05T07:40:16.747Z,75.48
2018-07-05T07:41:16.757Z,75.34
2018-07-05T07:42:16.766Z,76.21
2018-07-05T07:43:16.777Z,76.41
2018-07-05T07:44:16.785Z,76.35
2018-07-05T07:45:16.843Z,75.81
2018-07-05T07:46:16.806Z,73.71
2018-07-05T07:47:16.816Z,72.74
2018-07-05T07:48:16.826Z,71.64
2018-07-05T07:49:16.836Z,69.12
2018-07-05T07:50:16.848Z,66.53
2018-07-05T07:51:16.910Z,65.30
2018-07-05T07:52:16.870Z,63.71
2018-07-05T07:53:16.881Z,62.38
2018-07-05T07:54:16.894Z,58.97
2018-07-05T07:55:16.906Z,60.99
2018-07-05T07:56:16.918Z,60.57
2018-07-05T07:57:16.930Z,62.03
2018-07-05T07:58:16.949Z,61.64
2018-07-05T07:59:16.958Z,62.74
2018-07-05T08:00:16.968Z,63.26
2018-07-05T08:01:16.982Z,64.40
2018-07-05T08:02:16.997Z,69.24
2018-07-05T08:03:17.008Z,71.48
2018-07-05T08:04:17.025Z,70.70
2018-07-05T08:05:17.036Z,71.48
2018-07-05T08:06:17.050Z,72.41
2018-07-05T08:07:17.063Z,73.96
2018-07-05T08:08:17.080Z,73.58
2018-07-05T08:09:17.089Z,73.80
2018-07-05T08:10:17.104Z,72.16
2018-07-05T08:11:17.120Z,70.45
2018-07-05T08:12:17.130Z,69.48
2018-07-05T08:13:17.142Z,67.66
2018-07-05T08:14:17.155Z,64.62
2018-07-05T08:15:17.170Z,63.91
2018-07-05T08:16:17.184Z,62.55
2018-07-05T08:17:17.198Z,62.38
2018-07-05T08:18:17.212Z,60.86
2018-07-05T08:19:17.224Z,60.02
2018-07-05T08:20:17.239Z,60.31
2018-07-05T08:21:17.253Z,59.72
2018-07-05T08:22:17.267Z,60.11
2018-07-05T08:23:17.281Z,60.60
2018-07-05T08:24:17.294Z,59.10
2018-07-05T08:25:17.308Z,56.76
2018-07-05T08:26:17.322Z,55.23
2018-07-05T08:27:17.335Z,55.57
2018-07-05T08:28:17.350Z,56.54
2018-07-05T08:29:17.364Z,56.76
2018-07-05T08:30:17.380Z,55.37
2018-07-05T08:31:17.400Z,55.11
2018-07-05T08:32:17.407Z,54.62
2018-07-05T08:33:17.423Z,55.69
2018-07-05T08:34:17.438Z,55.30
2018-07-05T08:35:17.451Z,55.66
2018-07-05T08:36:17.466Z,57.81
2018-07-05T08:37:17.480Z,56.84
2018-07-05T08:38:17.495Z,56.67
2018-07-05T08:39:17.509Z,55.01
2018-07-05T08:40:17.525Z,56.15
2018-07-05T08:41:17.538Z,56.51
2018-07-05T08:42:17.557Z,55.47
2018-07-05T08:43:17.567Z,54.85
2018-07-05T08:44:17.581Z,54.62
2018-07-05T08:45:17.596Z,56.15
2018-07-05T08:46:17.610Z,55.11
2018-07-05T08:47:17.626Z,53.38
2018-07-05T08:48:17.641Z,52.97
2018-07-05T08:49:17.654Z,54.79
2018-07-05T08:50:17.672Z,54.82
2018-07-05T08:51:17.738Z,54.03
2018-07-05T08:52:17.697Z,53.48
2018-07-05T08:53:17.711Z,55.18
2018-07-05T08:54:17.727Z,57.82
2018-07-05T08:55:17.745Z,57.87
2018-07-05T08:56:17.757Z,56.37
2018-07-05T08:57:17.770Z,54.06
2018-07-05T08:58:17.827Z,53.60
2018-07-05T08:59:17.800Z,53.44
2018-07-05T09:00:17.861Z,52.75
2018-07-05T09:01:17.829Z,51.31
2018-07-05T09:02:17.844Z,51.31
2018-07-05T09:03:17.861Z,53.75
2018-07-05T09:04:17.874Z,52.73
2018-07-05T09:05:17.899Z,51.14
2018-07-05T09:06:17.903Z,50.65
2018-07-05T09:07:17.917Z,50.53
2018-07-05T09:08:17.931Z,50.24
2018-07-05T09:09:17.945Z,48.97
2018-07-05T09:10:17.961Z,48.85
2018-07-05T09:11:17.975Z,50.14
2018-07-05T09:12:17.990Z,48.61
2018-07-05T09:13:18.004Z,47.68
2018-07-05T09:14:18.018Z,47.36
2018-07-05T09:15:18.034Z,47.29
2018-07-05T09:16:18.047Z,46.53
2018-07-05T09:17:18.075Z,46.73
2018-07-05T09:18:18.182Z,46.34
2018-07-05T09:19:18.092Z,46.83
2018-07-05T09:20:18.105Z,47.90
2018-07-05T09:21:18.119Z,50.09
2018-07-05T09:22:18.136Z,50.60
2018-07-05T09:23:18.216Z,49.17
2018-07-05T09:24:18.169Z,49.07
2018-07-05T09:25:18.179Z,48.61
2018-07-05T09:26:18.195Z,47.44
2018-07-05T09:27:18.208Z,46.83
2018-07-05T09:28:18.222Z,47.22
2018-07-05T09:29:18.238Z,47.05
2018-07-05T09:30:18.253Z,46.36
2018-07-05T09:31:18.326Z,46.46
2018-07-05T09:32:18.280Z,46.78
2018-07-05T09:33:18.300Z,46.66
2018-07-05T09:34:18.313Z,47.17
2018-07-05T09:35:18.327Z,47.68
2018-07-05T09:36:18.342Z,48.71
2018-07-05T09:37:18.384Z,49.27
2018-07-05T09:38:18.372Z,48.71
2018-07-05T09:39:18.386Z,49.92
2018-07-05T09:40:18.401Z,50.82
2018-07-05T09:41:18.416Z,50.26
2018-07-05T09:42:18.435Z,49.10
2018-07-05T09:43:18.446Z,48.83
2018-07-05T09:44:18.460Z,48.85
2018-07-05T09:45:18.477Z,48.95
2018-07-05T09:46:18.492Z,48.36
2018-07-05T09:47:18.507Z,47.68
2018-07-05T09:48:18.522Z,48.61
2018-07-05T09:49:18.537Z,49.07
2018-07-05T09:50:18.553Z,47.17
2018-07-05T09:51:18.566Z,46.23
2018-07-05T09:52:18.581Z,46.19
2018-07-05T09:53:18.599Z,45.31
2018-07-05T09:54:18.611Z,45.90
2018-07-05T09:55:18.625Z,45.31
2018-07-05T09:56:18.643Z,45.51
2018-07-05T09:57:18.656Z,46.39
2018-07-05T09:58:18.674Z,46.73
2018-07-05T09:59:18.687Z,46.17
2018-07-05T10:00:18.701Z,45.23
2018-07-05T10:01:18.715Z,44.55
2018-07-05T10:02:18.731Z,44.18
2018-07-05T10:03:18.747Z,44.28
2018-07-05T10:04:18.760Z,44.48
2018-07-05T10:05:18.777Z,45.55
2018-07-05T10:06:18.793Z,45.21
2018-07-05T10:07:18.808Z,46.46
2018-07-05T10:08:18.821Z,46.46
2018-07-05T10:09:18.837Z,46.92
2018-07-05T10:10:18.853Z,48.10
2018-07-05T10:11:18.868Z,48.83
2018-07-05T10:12:18.881Z,47.27
2018-07-05T10:13:19.053Z,47.85
2018-07-05T10:14:18.913Z,49.78
2018-07-05T10:15:18.931Z,47.80
2018-07-05T10:16:18.945Z,46.48
2018-07-05T10:17:18.959Z,45.14
2018-07-05T10:18:18.972Z,43.81
2018-07-05T10:19:19.021Z,43.24
2018-07-05T10:20:19.002Z,41.50
2018-07-05T10:21:19.019Z,41.13
2018-07-05T10:22:19.036Z,40.55
2018-07-05T10:23:19.049Z,40.56
2018-07-05T10:24:19.063Z,39.49
2018-07-05T10:25:19.078Z,39.49
2018-07-05T10:26:19.093Z,40.90
2018-07-05T10:27:19.109Z,42.32
2018-07-05T10:28:19.123Z,43.95
2018-07-05T10:29:19.139Z,43.92
2018-07-05T10:30:19.153Z,43.85
2018-07-05T10:31:19.170Z,42.81
2018-07-05T10:32:19.184Z,42.52
2018-07-05T10:33:19.198Z,42.35
2018-07-05T10:34:19.218Z,42.03
2018-07-05T10:35:19.230Z,42.89
2018-07-05T10:36:19.243Z,43.75
2018-07-05T10:37:19.258Z,43.49
2018-07-05T10:38:19.276Z,44.04
2018-07-05T10:39:19.290Z,44.14
2018-07-05T10:40:19.305Z,44.51
2018-07-05T10:41:19.319Z,44.04
2018-07-05T10:42:19.335Z,44.70
2018-07-05T10:43:19.350Z,45.29
2018-07-05T10:44:19.365Z,44.80
2018-07-05T10:45:19.380Z,44.73
2018-07-05T10:46:19.393Z,44.51
2018-07-05T10:47:19.409Z,44.53
2018-07-05T10:48:19.424Z,43.87
2018-07-05T10:49:19.439Z,42.81
2018-07-05T10:50:19.454Z,42.44
2018-07-05T10:51:19.469Z,43.10
2018-07-05T10:52:19.483Z,42.71
2018-07-05T10:53:19.500Z,43.89
2018-07-05T10:54:19.514Z,43.99
2018-07-05T10:55:19.553Z,44.45
2018-07-05T10:56:19.542Z,43.99
2018-07-05T10:57:19.558Z,45.68
2018-07-05T10:58:19.576Z,46.29
2018-07-05T10:59:19.588Z,45.62
2018-07-05T11:00:19.601Z,44.94
2018-07-05T11:01:19.616Z,45.41
2018-07-05T11:02:19.632Z,46.92
2018-07-05T11:03:19.646Z,47.97
2018-07-05T11:04:19.662Z,48.93
2018-07-05T11:05:19.675Z,48.56
2018-07-05T11:06:19.689Z,47.88
2018-07-05T11:07:19.705Z,48.34
2018-07-05T11:08:19.716Z,48.73
2018-07-05T11:09:19.733Z,47.75
2018-07-05T11:10:19.748Z,47.41
2018-07-05T11:11:19.761Z,47.41
2018-07-05T11:12:19.773Z,46.85
2018-07-05T11:13:19.790Z,47.02
2018-07-05T11:14:19.824Z,48.14
2018-07-05T11:15:19.816Z,49.29
2018-07-05T11:16:19.830Z,49.29
2018-07-05T11:17:19.845Z,48.56
2018-07-05T11:18:19.860Z,48.39
2018-07-05T11:19:19.873Z,47.80
2018-07-05T11:20:19.885Z,47.61
2018-07-05T11:21:19.899Z,47.95
2018-07-05T11:22:19.913Z,49.88
2018-07-05T11:23:19.926Z,50.53
2018-07-05T11:24:19.940Z,51.75
2018-07-05T11:25:19.952Z,52.98
2018-07-05T11:26:19.972Z,53.45
2018-07-05T11:27:19.983Z,54.32
2018-07-05T11:28:20.001Z,54.80
2018-07-05T11:29:20.007Z,54.64
2018-07-05T11:30:20.067Z,53.08
2018-07-05T11:31:20.040Z,53.28
2018-07-05T11:32:20.044Z,53.67
2018-07-05T11:33:20.056Z,53.50
2018-07-05T11:34:20.072Z,52.72
2018-07-05T11:35:20.085Z,52.23
2018-07-05T11:36:20.111Z,51.94
2018-07-05T11:37:20.109Z,51.58
2018-07-05T11:38:20.124Z,51.97
2018-07-05T11:39:20.133Z,52.06
2018-07-05T11:40:20.146Z,51.67
2018-07-05T11:41:20.159Z,51.94
2018-07-05T11:42:20.219Z,52.50
2018-07-05T11:43:20.187Z,52.96
2018-07-05T11:44:20.197Z,52.86
2018-07-05T11:45:20.208Z,52.86
2018-07-05T11:46:20.220Z,51.75
2018-07-05T11:47:20.232Z,51.75
2018-07-05T11:48:20.244Z,51.84
2018-07-05T11:49:20.255Z,50.90
2018-07-05T11:50:20.269Z,50.70
2018-07-05T11:51:20.284Z,50.60
2018-07-05T11:52:20.333Z,51.17
2018-07-05T11:53:20.308Z,51.17
2018-07-05T11:54:20.317Z,51.19
2018-07-05T11:55:20.329Z,50.51
2018-07-05T11:56:20.340Z,50.70
2018-07-05T11:57:20.352Z,50.48
2018-07-05T11:58:20.364Z,52.14
2018-07-05T11:59:20.377Z,51.92
2018-07-05T12:00:20.386Z,51.82
2018-07-05T12:01:20.400Z,52.69
2018-07-05T12:02:20.409Z,52.50
2018-07-05T12:03:20.423Z,52.01
2018-07-05T12:04:20.433Z,51.72
2018-07-05T12:05:20.445Z,52.89
2018-07-05T12:06:20.457Z,52.89
2018-07-05T12:07:20.468Z,52.04
2018-07-05T12:08:20.479Z,52.33
2018-07-05T12:09:20.491Z,51.67
2018-07-05T12:10:20.504Z,51.39
2018-07-05T12:11:20.514Z,51.09
2018-07-05T12:12:20.548Z,50.70
2018-07-05T12:13:20.540Z,50.99
2018-07-05T12:14:20.549Z,50.60
2018-07-05T12:15:20.561Z,50.90
2018-07-05T12:16:20.572Z,51.39
2018-07-05T12:17:20.581Z,51.62
2018-07-05T12:18:20.610Z,51.84
2018-07-05T12:19:20.607Z,52.04
2018-07-05T12:20:20.615Z,51.92
2018-07-05T12:21:20.629Z,51.62
2018-07-05T12:22:20.638Z,52.21
2018-07-05T12:23:20.652Z,51.55
2018-07-05T12:24:20.796Z,51.19
2018-07-05T12:25:20.673Z,50.12
2018-07-05T12:26:20.683Z,50.19
2018-07-05T12:27:20.695Z,50.78
2018-07-05T12:28:20.705Z,51.29
2018-07-05T12:29:20.776Z,50.51
2018-07-05T12:30:20.727Z,50.90
2018-07-05T12:31:20.741Z,51.26
2018-07-05T12:32:20.749Z,51.09
2018-07-05T12:33:20.761Z,49.46
2018-07-05T12:34:20.772Z,48.66
2018-07-05T12:35:20.784Z,49.34
2018-07-05T12:36:20.794Z,50.02
2018-07-05T12:37:20.805Z,50.02
2018-07-05T12:38:20.816Z,49.71
2018-07-05T12:39:20.836Z,49.99
2018-07-05T12:40:20.844Z,50.48
2018-07-05T12:41:20.849Z,50.46
2018-07-05T12:42:20.861Z,50.85
2018-07-05T12:43:20.873Z,51.04
2018-07-05T12:44:20.882Z,50.09
2018-07-05T12:45:20.894Z,49.92
2018-07-05T12:46:20.904Z,48.85
2018-07-05T12:47:20.915Z,48.49
2018-07-05T12:48:20.926Z,48.49
2018-07-05T12:49:20.936Z,48.19
2018-07-05T12:50:20.947Z,48.36
2018-07-05T12:51:20.958Z,48.97
2018-07-05T12:52:20.969Z,48.44